< < Back
Terminal Aerodrome Forecast


Current Version              Previous Versions:   1  2  3  4  5  6  7  8  9  

Terminal Aerodrome Forecast

288
FTUS42 KILM 262047 AAA
TAFFLO
TAF AMD
KFLO 262047Z 2621/2718 04010KT P6SM VCTS BKN018 OVC025CB
     FM262200 04007KT P6SM VCSH SCT025 BKN060
      TEMPO 2622/2702 BKN025
     FM271500 35007KT P6SM SKC=



Latest METAR

050
SAUS70 KWBC 270500 RRE
MTRFLO
METAR KFLO 270453Z AUTO 02006KT 10SM OVC060 12/09 A2979 RMK AO2 SLP084
T01170089 402000117


USA.gov is the U.S. government's official web portal to all federal, state and local government web resources and services.